sensor_id;sensor_type;location;lat;lon;timestamp;P1;durP1;ratioP1;P2;durP2;ratioP2
14704;SDS011;7442;50.840;3.396;2023-12-14T00:01:29;5.58;;;4.40;;
14704;SDS011;7442;50.840;3.396;2023-12-14T00:03:56;6.20;;;4.42;;
14704;SDS011;7442;50.840;3.396;2023-12-14T00:06:24;6.25;;;4.45;;
14704;SDS011;7442;50.840;3.396;2023-12-14T00:08:51;5.40;;;4.35;;
14704;SDS011;7442;50.840;3.396;2023-12-14T00:11:18;6.15;;;4.55;;
14704;SDS011;7442;50.840;3.396;2023-12-14T00:13:46;7.12;;;4.70;;
14704;SDS011;7442;50.840;3.396;2023-12-14T00:16:14;6.25;;;4.28;;
14704;SDS011;7442;50.840;3.396;2023-12-14T00:18:43;6.33;;;4.22;;
14704;SDS011;7442;50.840;3.396;2023-12-14T00:21:10;6.78;;;4.35;;
14704;SDS011;7442;50.840;3.396;2023-12-14T00:23:38;5.22;;;4.00;;
14704;SDS011;7442;50.840;3.396;2023-12-14T00:26:05;6.33;;;4.42;;
14704;SDS011;7442;50.840;3.396;2023-12-14T00:28:33;6.25;;;4.12;;
14704;SDS011;7442;50.840;3.396;2023-12-14T00:31:01;5.30;;;4.30;;
14704;SDS011;7442;50.840;3.396;2023-12-14T00:33:28;7.03;;;4.45;;
14704;SDS011;7442;50.840;3.396;2023-12-14T00:35:55;5.75;;;3.98;;
14704;SDS011;7442;50.840;3.396;2023-12-14T00:38:23;5.85;;;4.10;;
14704;SDS011;7442;50.840;3.396;2023-12-14T00:40:51;6.67;;;4.42;;
14704;SDS011;7442;50.840;3.396;2023-12-14T00:43:18;5.35;;;3.92;;
14704;SDS011;7442;50.840;3.396;2023-12-14T00:45:46;5.92;;;4.40;;
14704;SDS011;7442;50.840;3.396;2023-12-14T00:48:14;5.53;;;4.10;;
14704;SDS011;7442;50.840;3.396;2023-12-14T00:50:41;5.92;;;3.83;;
14704;SDS011;7442;50.840;3.396;2023-12-14T00:53:09;5.22;;;3.45;;
14704;SDS011;7442;50.840;3.396;2023-12-14T00:55:37;6.75;;;3.75;;
14704;SDS011;7442;50.840;3.396;2023-12-14T00:58:04;5.47;;;4.20;;
14704;SDS011;7442;50.840;3.396;2023-12-14T01:00:32;5.15;;;3.80;;
14704;SDS011;7442;50.840;3.396;2023-12-14T01:02:59;5.80;;;4.15;;
14704;SDS011;7442;50.840;3.396;2023-12-14T01:05:26;5.08;;;3.65;;
14704;SDS011;7442;50.840;3.396;2023-12-14T01:07:54;5.40;;;3.30;;
14704;SDS011;7442;50.840;3.396;2023-12-14T01:10:22;6.55;;;4.10;;
14704;SDS011;7442;50.840;3.396;2023-12-14T01:12:50;4.83;;;3.75;;
14704;SDS011;7442;50.840;3.396;2023-12-14T01:15:18;4.97;;;3.70;;
14704;SDS011;7442;50.840;3.396;2023-12-14T01:17:45;5.00;;;3.37;;
14704;SDS011;7442;50.840;3.396;2023-12-14T01:20:13;3.80;;;3.10;;
14704;SDS011;7442;50.840;3.396;2023-12-14T01:22:41;4.45;;;3.42;;
14704;SDS011;7442;50.840;3.396;2023-12-14T01:25:09;4.85;;;3.52;;
14704;SDS011;7442;50.840;3.396;2023-12-14T01:27:37;5.08;;;3.52;;
14704;SDS011;7442;50.840;3.396;2023-12-14T01:30:04;3.90;;;3.02;;
14704;SDS011;7442;50.840;3.396;2023-12-14T01:32:32;4.58;;;3.42;;
14704;SDS011;7442;50.840;3.396;2023-12-14T01:35:00;3.35;;;2.83;;
14704;SDS011;7442;50.840;3.396;2023-12-14T01:37:27;5.72;;;3.25;;
14704;SDS011;7442;50.840;3.396;2023-12-14T01:39:55;3.95;;;3.10;;
14704;SDS011;7442;50.840;3.396;2023-12-14T01:42:22;4.62;;;3.08;;
14704;SDS011;7442;50.840;3.396;2023-12-14T01:44:50;4.97;;;3.33;;
14704;SDS011;7442;50.840;3.396;2023-12-14T01:47:18;4.00;;;2.80;;
14704;SDS011;7442;50.840;3.396;2023-12-14T01:49:45;5.05;;;3.27;;
14704;SDS011;7442;50.840;3.396;2023-12-14T01:52:13;5.42;;;3.33;;
14704;SDS011;7442;50.840;3.396;2023-12-14T01:54:40;3.37;;;2.90;;
14704;SDS011;7442;50.840;3.396;2023-12-14T01:57:08;4.50;;;3.02;;
14704;SDS011;7442;50.840;3.396;2023-12-14T01:59:35;3.77;;;2.77;;
14704;SDS011;7442;50.840;3.396;2023-12-14T02:02:03;4.33;;;2.70;;
14704;SDS011;7442;50.840;3.396;2023-12-14T02:04:32;4.70;;;2.55;;
14704;SDS011;7442;50.840;3.396;2023-12-14T02:06:59;5.50;;;2.47;;
14704;SDS011;7442;50.840;3.396;2023-12-14T02:09:27;3.25;;;2.27;;
14704;SDS011;7442;50.840;3.396;2023-12-14T02:11:55;4.17;;;2.85;;
14704;SDS011;7442;50.840;3.396;2023-12-14T02:14:22;3.72;;;2.35;;
14704;SDS011;7442;50.840;3.396;2023-12-14T02:16:50;3.15;;;2.30;;
14704;SDS011;7442;50.840;3.396;2023-12-14T02:19:18;2.90;;;2.35;;
14704;SDS011;7442;50.840;3.396;2023-12-14T02:21:46;2.90;;;2.30;;
14704;SDS011;7442;50.840;3.396;2023-12-14T02:24:14;3.25;;;2.50;;
14704;SDS011;7442;50.840;3.396;2023-12-14T02:26:42;3.45;;;2.20;;
14704;SDS011;7442;50.840;3.396;2023-12-14T02:29:09;2.75;;;2.40;;
14704;SDS011;7442;50.840;3.396;2023-12-14T02:31:37;3.27;;;2.27;;
14704;SDS011;7442;50.840;3.396;2023-12-14T02:34:04;3.02;;;2.33;;
14704;SDS011;7442;50.840;3.396;2023-12-14T02:36:32;3.02;;;2.17;;
14704;SDS011;7442;50.840;3.396;2023-12-14T02:39:00;2.05;;;1.85;;
14704;SDS011;7442;50.840;3.396;2023-12-14T02:41:28;2.60;;;2.40;;
14704;SDS011;7442;50.840;3.396;2023-12-14T02:43:55;2.85;;;1.95;;
14704;SDS011;7442;50.840;3.396;2023-12-14T02:46:23;2.10;;;1.67;;
14704;SDS011;7442;50.840;3.396;2023-12-14T02:48:51;3.45;;;2.30;;
14704;SDS011;7442;50.840;3.396;2023-12-14T02:51:18;3.83;;;2.02;;
14704;SDS011;7442;50.840;3.396;2023-12-14T02:53:46;2.58;;;1.72;;
14704;SDS011;7442;50.840;3.396;2023-12-14T02:56:13;2.45;;;2.10;;
14704;SDS011;7442;50.840;3.396;2023-12-14T02:58:41;3.05;;;1.98;;
14704;SDS011;7442;50.840;3.396;2023-12-14T03:01:09;2.45;;;1.60;;
14704;SDS011;7442;50.840;3.396;2023-12-14T03:03:38;3.80;;;2.17;;
14704;SDS011;7442;50.840;3.396;2023-12-14T03:06:06;3.98;;;1.90;;
14704;SDS011;7442;50.840;3.396;2023-12-14T03:08:33;2.87;;;1.85;;
14704;SDS011;7442;50.840;3.396;2023-12-14T03:11:01;2.67;;;1.87;;
14704;SDS011;7442;50.840;3.396;2023-12-14T03:13:28;3.17;;;1.98;;
14704;SDS011;7442;50.840;3.396;2023-12-14T03:15:56;2.05;;;1.50;;
14704;SDS011;7442;50.840;3.396;2023-12-14T03:18:24;3.87;;;1.92;;
14704;SDS011;7442;50.840;3.396;2023-12-14T03:20:51;2.75;;;2.00;;
14704;SDS011;7442;50.840;3.396;2023-12-14T03:23:19;1.92;;;1.62;;
14704;SDS011;7442;50.840;3.396;2023-12-14T03:25:47;1.70;;;1.60;;
14704;SDS011;7442;50.840;3.396;2023-12-14T03:28:15;1.80;;;1.42;;
14704;SDS011;7442;50.840;3.396;2023-12-14T03:30:44;2.08;;;1.32;;
14704;SDS011;7442;50.840;3.396;2023-12-14T03:33:12;2.30;;;1.75;;
14704;SDS011;7442;50.840;3.396;2023-12-14T03:35:40;1.80;;;1.50;;
14704;SDS011;7442;50.840;3.396;2023-12-14T03:38:09;4.42;;;1.60;;
14704;SDS011;7442;50.840;3.396;2023-12-14T03:40:36;2.52;;;1.60;;
14704;SDS011;7442;50.840;3.396;2023-12-14T03:43:06;2.30;;;1.60;;
14704;SDS011;7442;50.840;3.396;2023-12-14T03:45:33;2.40;;;1.75;;
14704;SDS011;7442;50.840;3.396;2023-12-14T03:48:01;2.52;;;1.52;;
14704;SDS011;7442;50.840;3.396;2023-12-14T03:50:29;2.98;;;1.77;;
14704;SDS011;7442;50.840;3.396;2023-12-14T03:52:57;2.95;;;1.77;;
14704;SDS011;7442;50.840;3.396;2023-12-14T03:55:24;2.00;;;1.77;;
14704;SDS011;7442;50.840;3.396;2023-12-14T03:57:52;2.67;;;1.60;;
14704;SDS011;7442;50.840;3.396;2023-12-14T04:00:19;2.65;;;1.82;;
14704;SDS011;7442;50.840;3.396;2023-12-14T04:02:48;3.10;;;1.75;;
14704;SDS011;7442;50.840;3.396;2023-12-14T04:05:16;2.22;;;1.55;;
14704;SDS011;7442;50.840;3.396;2023-12-14T04:07:43;2.55;;;1.70;;
14704;SDS011;7442;50.840;3.396;2023-12-14T04:10:12;1.82;;;1.40;;
14704;SDS011;7442;50.840;3.396;2023-12-14T04:12:40;2.40;;;1.42;;
14704;SDS011;7442;50.840;3.396;2023-12-14T04:15:08;1.87;;;1.42;;
14704;SDS011;7442;50.840;3.396;2023-12-14T04:17:36;1.75;;;1.50;;
14704;SDS011;7442;50.840;3.396;2023-12-14T04:20:05;1.77;;;1.67;;
14704;SDS011;7442;50.840;3.396;2023-12-14T04:22:33;1.85;;;1.45;;
14704;SDS011;7442;50.840;3.396;2023-12-14T04:25:00;1.92;;;1.50;;
14704;SDS011;7442;50.840;3.396;2023-12-14T04:27:28;1.70;;;1.60;;
14704;SDS011;7442;50.840;3.396;2023-12-14T04:29:56;2.55;;;1.62;;
14704;SDS011;7442;50.840;3.396;2023-12-14T04:32:23;3.00;;;1.62;;
14704;SDS011;7442;50.840;3.396;2023-12-14T04:34:51;1.50;;;1.30;;
14704;SDS011;7442;50.840;3.396;2023-12-14T04:37:19;1.92;;;1.25;;
14704;SDS011;7442;50.840;3.396;2023-12-14T04:39:47;3.52;;;1.90;;
14704;SDS011;7442;50.840;3.396;2023-12-14T04:42:14;3.67;;;2.20;;
14704;SDS011;7442;50.840;3.396;2023-12-14T04:44:42;2.37;;;1.50;;
14704;SDS011;7442;50.840;3.396;2023-12-14T04:47:10;3.02;;;1.60;;
14704;SDS011;7442;50.840;3.396;2023-12-14T04:49:37;1.92;;;1.27;;
14704;SDS011;7442;50.840;3.396;2023-12-14T04:52:05;2.70;;;1.57;;
14704;SDS011;7442;50.840;3.396;2023-12-14T04:54:33;3.15;;;1.60;;
14704;SDS011;7442;50.840;3.396;2023-12-14T04:57:02;1.82;;;1.52;;
14704;SDS011;7442;50.840;3.396;2023-12-14T04:59:30;1.62;;;1.37;;
14704;SDS011;7442;50.840;3.396;2023-12-14T05:01:58;2.08;;;1.40;;
14704;SDS011;7442;50.840;3.396;2023-12-14T05:04:26;1.52;;;1.30;;
14704;SDS011;7442;50.840;3.396;2023-12-14T05:06:53;4.33;;;1.32;;
14704;SDS011;7442;50.840;3.396;2023-12-14T05:09:21;2.45;;;1.47;;
14704;SDS011;7442;50.840;3.396;2023-12-14T05:11:49;1.80;;;1.27;;
14704;SDS011;7442;50.840;3.396;2023-12-14T05:14:16;1.50;;;1.40;;
14704;SDS011;7442;50.840;3.396;2023-12-14T05:16:44;1.72;;;1.30;;
14704;SDS011;7442;50.840;3.396;2023-12-14T05:19:12;1.75;;;1.12;;
14704;SDS011;7442;50.840;3.396;2023-12-14T05:21:39;2.55;;;1.70;;
14704;SDS011;7442;50.840;3.396;2023-12-14T05:24:07;1.70;;;1.35;;
14704;SDS011;7442;50.840;3.396;2023-12-14T05:26:35;1.42;;;1.32;;
14704;SDS011;7442;50.840;3.396;2023-12-14T05:29:02;1.45;;;1.32;;
14704;SDS011;7442;50.840;3.396;2023-12-14T05:31:30;1.95;;;1.40;;
14704;SDS011;7442;50.840;3.396;2023-12-14T05:33:58;1.95;;;1.72;;
14704;SDS011;7442;50.840;3.396;2023-12-14T05:36:26;1.77;;;1.22;;
14704;SDS011;7442;50.840;3.396;2023-12-14T05:38:53;1.95;;;1.30;;
14704;SDS011;7442;50.840;3.396;2023-12-14T05:41:21;1.75;;;1.32;;
14704;SDS011;7442;50.840;3.396;2023-12-14T05:43:50;2.12;;;1.42;;
14704;SDS011;7442;50.840;3.396;2023-12-14T05:46:21;4.10;;;1.40;;
14704;SDS011;7442;50.840;3.396;2023-12-14T05:48:53;2.25;;;1.45;;
14704;SDS011;7442;50.840;3.396;2023-12-14T05:51:27;1.42;;;1.32;;
14704;SDS011;7442;50.840;3.396;2023-12-14T05:53:55;1.95;;;1.30;;
14704;SDS011;7442;50.840;3.396;2023-12-14T05:56:23;1.65;;;1.30;;
14704;SDS011;7442;50.840;3.396;2023-12-14T05:58:51;1.45;;;1.35;;
14704;SDS011;7442;50.840;3.396;2023-12-14T06:01:20;2.62;;;1.65;;
14704;SDS011;7442;50.840;3.396;2023-12-14T06:03:47;1.82;;;1.20;;
14704;SDS011;7442;50.840;3.396;2023-12-14T06:06:15;2.55;;;1.30;;
14704;SDS011;7442;50.840;3.396;2023-12-14T06:08:43;1.82;;;1.30;;
14704;SDS011;7442;50.840;3.396;2023-12-14T06:11:11;1.95;;;1.30;;
14704;SDS011;7442;50.840;3.396;2023-12-14T06:13:39;1.77;;;1.30;;
14704;SDS011;7442;50.840;3.396;2023-12-14T06:16:07;2.75;;;1.30;;
14704;SDS011;7442;50.840;3.396;2023-12-14T06:18:36;1.55;;;1.20;;
14704;SDS011;7442;50.840;3.396;2023-12-14T06:21:05;2.05;;;1.12;;
14704;SDS011;7442;50.840;3.396;2023-12-14T06:23:33;1.25;;;1.02;;
14704;SDS011;7442;50.840;3.396;2023-12-14T06:26:02;1.20;;;1.00;;
14704;SDS011;7442;50.840;3.396;2023-12-14T06:28:30;2.22;;;1.50;;
14704;SDS011;7442;50.840;3.396;2023-12-14T06:30:58;1.67;;;1.20;;
14704;SDS011;7442;50.840;3.396;2023-12-14T06:33:27;1.98;;;1.45;;
14704;SDS011;7442;50.840;3.396;2023-12-14T06:35:55;1.90;;;1.37;;
14704;SDS011;7442;50.840;3.396;2023-12-14T06:38:22;1.98;;;1.07;;
14704;SDS011;7442;50.840;3.396;2023-12-14T06:40:50;7.42;;;1.70;;
14704;SDS011;7442;50.840;3.396;2023-12-14T06:43:17;1.95;;;1.40;;
14704;SDS011;7442;50.840;3.396;2023-12-14T06:45:45;4.10;;;1.47;;
14704;SDS011;7442;50.840;3.396;2023-12-14T06:48:13;4.08;;;1.50;;
14704;SDS011;7442;50.840;3.396;2023-12-14T06:50:41;2.80;;;1.50;;
14704;SDS011;7442;50.840;3.396;2023-12-14T06:53:08;3.30;;;1.45;;
14704;SDS011;7442;50.840;3.396;2023-12-14T06:55:36;4.78;;;1.47;;
14704;SDS011;7442;50.840;3.396;2023-12-14T06:58:04;2.75;;;1.60;;
14704;SDS011;7442;50.840;3.396;2023-12-14T07:00:33;4.35;;;1.50;;
14704;SDS011;7442;50.840;3.396;2023-12-14T07:03:01;2.77;;;1.77;;
14704;SDS011;7442;50.840;3.396;2023-12-14T07:05:30;3.10;;;1.37;;
14704;SDS011;7442;50.840;3.396;2023-12-14T07:07:59;4.42;;;1.67;;
14704;SDS011;7442;50.840;3.396;2023-12-14T07:10:27;3.75;;;1.60;;
14704;SDS011;7442;50.840;3.396;2023-12-14T07:12:55;2.77;;;1.45;;
14704;SDS011;7442;50.840;3.396;2023-12-14T07:15:23;5.17;;;1.80;;
14704;SDS011;7442;50.840;3.396;2023-12-14T07:17:51;3.90;;;1.70;;
14704;SDS011;7442;50.840;3.396;2023-12-14T07:20:19;4.65;;;1.42;;
14704;SDS011;7442;50.840;3.396;2023-12-14T07:22:47;2.58;;;1.52;;
14704;SDS011;7442;50.840;3.396;2023-12-14T07:25:15;2.67;;;1.50;;
14704;SDS011;7442;50.840;3.396;2023-12-14T07:27:43;5.80;;;1.47;;
14704;SDS011;7442;50.840;3.396;2023-12-14T07:30:11;3.10;;;1.50;;
14704;SDS011;7442;50.840;3.396;2023-12-14T07:32:38;5.15;;;1.65;;
14704;SDS011;7442;50.840;3.396;2023-12-14T07:35:06;3.50;;;1.50;;
14704;SDS011;7442;50.840;3.396;2023-12-14T07:37:35;4.62;;;1.70;;
14704;SDS011;7442;50.840;3.396;2023-12-14T07:40:02;3.87;;;1.30;;
14704;SDS011;7442;50.840;3.396;2023-12-14T07:42:30;4.90;;;1.70;;
14704;SDS011;7442;50.840;3.396;2023-12-14T07:44:58;2.92;;;1.50;;
14704;SDS011;7442;50.840;3.396;2023-12-14T07:47:26;3.55;;;1.60;;
14704;SDS011;7442;50.840;3.396;2023-12-14T07:49:54;3.45;;;1.65;;
14704;SDS011;7442;50.840;3.396;2023-12-14T07:52:21;3.75;;;1.67;;
14704;SDS011;7442;50.840;3.396;2023-12-14T07:54:52;4.17;;;1.72;;
14704;SDS011;7442;50.840;3.396;2023-12-14T07:57:21;3.02;;;1.40;;
14704;SDS011;7442;50.840;3.396;2023-12-14T07:59:50;3.30;;;1.95;;
14704;SDS011;7442;50.840;3.396;2023-12-14T08:02:18;3.85;;;1.70;;
14704;SDS011;7442;50.840;3.396;2023-12-14T08:04:46;5.50;;;1.55;;
14704;SDS011;7442;50.840;3.396;2023-12-14T08:07:14;5.53;;;1.57;;
14704;SDS011;7442;50.840;3.396;2023-12-14T08:09:41;3.87;;;1.70;;
14704;SDS011;7442;50.840;3.396;2023-12-14T08:12:09;5.45;;;2.00;;
14704;SDS011;7442;50.840;3.396;2023-12-14T08:14:36;4.97;;;1.60;;
14704;SDS011;7442;50.840;3.396;2023-12-14T08:17:06;4.62;;;1.45;;
14704;SDS011;7442;50.840;3.396;2023-12-14T08:19:33;3.70;;;1.70;;
14704;SDS011;7442;50.840;3.396;2023-12-14T08:22:01;4.42;;;1.60;;
14704;SDS011;7442;50.840;3.396;2023-12-14T08:24:28;6.10;;;1.60;;
14704;SDS011;7442;50.840;3.396;2023-12-14T08:26:56;6.12;;;1.50;;
14704;SDS011;7442;50.840;3.396;2023-12-14T08:29:23;3.90;;;1.50;;
14704;SDS011;7442;50.840;3.396;2023-12-14T08:31:51;5.40;;;1.80;;
14704;SDS011;7442;50.840;3.396;2023-12-14T08:34:20;2.20;;;1.40;;
14704;SDS011;7442;50.840;3.396;2023-12-14T08:36:48;5.62;;;1.80;;
14704;SDS011;7442;50.840;3.396;2023-12-14T08:39:16;5.08;;;1.60;;
14704;SDS011;7442;50.840;3.396;2023-12-14T08:41:45;4.67;;;1.85;;
14704;SDS011;7442;50.840;3.396;2023-12-14T08:44:14;3.47;;;1.42;;
14704;SDS011;7442;50.840;3.396;2023-12-14T08:46:42;4.20;;;1.67;;
14704;SDS011;7442;50.840;3.396;2023-12-14T08:49:10;4.30;;;1.80;;
14704;SDS011;7442;50.840;3.396;2023-12-14T08:51:39;6.47;;;1.90;;
14704;SDS011;7442;50.840;3.396;2023-12-14T08:54:08;3.65;;;1.40;;
14704;SDS011;7442;50.840;3.396;2023-12-14T08:56:35;4.50;;;1.40;;
14704;SDS011;7442;50.840;3.396;2023-12-14T08:59:03;7.15;;;1.50;;
14704;SDS011;7442;50.840;3.396;2023-12-14T09:01:50;6.03;;;1.80;;
14704;SDS011;7442;50.840;3.396;2023-12-14T09:04:37;6.45;;;1.82;;
14704;SDS011;7442;50.840;3.396;2023-12-14T09:07:23;3.62;;;1.70;;
14704;SDS011;7442;50.840;3.396;2023-12-14T09:10:09;2.87;;;1.40;;
14704;SDS011;7442;50.840;3.396;2023-12-14T09:12:56;5.92;;;1.72;;
14704;SDS011;7442;50.840;3.396;2023-12-14T09:15:42;2.55;;;1.37;;
14704;SDS011;7442;50.840;3.396;2023-12-14T09:18:29;3.10;;;1.80;;
14704;SDS011;7442;50.840;3.396;2023-12-14T09:21:15;5.65;;;2.20;;
14704;SDS011;7442;50.840;3.396;2023-12-14T09:24:01;3.42;;;1.60;;
14704;SDS011;7442;50.840;3.396;2023-12-14T09:26:47;6.33;;;2.00;;
14704;SDS011;7442;50.840;3.396;2023-12-14T09:29:34;3.27;;;1.72;;
14704;SDS011;7442;50.840;3.396;2023-12-14T09:32:20;6.42;;;2.00;;
14704;SDS011;7442;50.840;3.396;2023-12-14T09:35:06;3.67;;;1.40;;
14704;SDS011;7442;50.840;3.396;2023-12-14T09:37:52;3.35;;;1.87;;
14704;SDS011;7442;50.840;3.396;2023-12-14T09:40:39;4.92;;;1.30;;
14704;SDS011;7442;50.840;3.396;2023-12-14T09:43:25;3.20;;;1.50;;
14704;SDS011;7442;50.840;3.396;2023-12-14T09:46:11;3.05;;;1.70;;
14704;SDS011;7442;50.840;3.396;2023-12-14T09:48:58;1.95;;;1.42;;
14704;SDS011;7442;50.840;3.396;2023-12-14T09:51:45;4.00;;;1.75;;
14704;SDS011;7442;50.840;3.396;2023-12-14T09:54:31;3.47;;;1.57;;
14704;SDS011;7442;50.840;3.396;2023-12-14T10:00:33;4.00;;;1.40;;
14704;SDS011;7442;50.840;3.396;2023-12-14T10:03:20;3.80;;;1.80;;
14704;SDS011;7442;50.840;3.396;2023-12-14T10:06:06;3.30;;;1.40;;
14704;SDS011;7442;50.840;3.396;2023-12-14T10:08:56;2.47;;;1.32;;
14704;SDS011;7442;50.840;3.396;2023-12-14T10:11:42;2.77;;;1.67;;
14704;SDS011;7442;50.840;3.396;2023-12-14T10:14:29;3.80;;;1.50;;
14704;SDS011;7442;50.840;3.396;2023-12-14T10:17:19;2.83;;;1.52;;
14704;SDS011;7442;50.840;3.396;2023-12-14T10:20:06;2.35;;;1.52;;
14704;SDS011;7442;50.840;3.396;2023-12-14T10:22:54;3.67;;;1.70;;
14704;SDS011;7442;50.840;3.396;2023-12-14T10:25:42;3.72;;;1.47;;
14704;SDS011;7442;50.840;3.396;2023-12-14T10:28:28;2.20;;;1.47;;
14704;SDS011;7442;50.840;3.396;2023-12-14T10:31:14;4.87;;;1.50;;
14704;SDS011;7442;50.840;3.396;2023-12-14T10:34:00;2.55;;;1.42;;
14704;SDS011;7442;50.840;3.396;2023-12-14T10:36:46;2.62;;;1.42;;
14704;SDS011;7442;50.840;3.396;2023-12-14T10:39:33;4.37;;;1.57;;
14704;SDS011;7442;50.840;3.396;2023-12-14T10:42:20;2.30;;;1.42;;
14704;SDS011;7442;50.840;3.396;2023-12-14T10:45:07;3.22;;;1.32;;
14704;SDS011;7442;50.840;3.396;2023-12-14T10:47:54;3.10;;;1.70;;
14704;SDS011;7442;50.840;3.396;2023-12-14T10:50:42;2.52;;;1.60;;
14704;SDS011;7442;50.840;3.396;2023-12-14T10:53:29;6.22;;;1.50;;
14704;SDS011;7442;50.840;3.396;2023-12-14T10:56:16;2.75;;;1.20;;
14704;SDS011;7442;50.840;3.396;2023-12-14T10:59:02;2.00;;;1.42;;
14704;SDS011;7442;50.840;3.396;2023-12-14T11:01:53;1.45;;;1.35;;
14704;SDS011;7442;50.840;3.396;2023-12-14T11:05:00;3.62;;;1.80;;
14704;SDS011;7442;50.840;3.396;2023-12-14T11:07:43;3.05;;;1.62;;
14704;SDS011;7442;50.840;3.396;2023-12-14T11:10:37;2.65;;;1.45;;
14704;SDS011;7442;50.840;3.396;2023-12-14T11:13:24;2.70;;;1.60;;
14704;SDS011;7442;50.840;3.396;2023-12-14T11:16:11;1.90;;;1.40;;
14704;SDS011;7442;50.840;3.396;2023-12-14T11:22:09;2.75;;;1.60;;
14704;SDS011;7442;50.840;3.396;2023-12-14T11:24:57;3.90;;;1.50;;
14704;SDS011;7442;50.840;3.396;2023-12-14T11:27:43;2.87;;;1.30;;
14704;SDS011;7442;50.840;3.396;2023-12-14T11:30:30;3.25;;;1.30;;
14704;SDS011;7442;50.840;3.396;2023-12-14T11:33:16;2.25;;;1.45;;
14704;SDS011;7442;50.840;3.396;2023-12-14T11:36:03;2.40;;;1.50;;
14704;SDS011;7442;50.840;3.396;2023-12-14T11:38:49;2.22;;;1.50;;
14704;SDS011;7442;50.840;3.396;2023-12-14T11:41:35;2.00;;;1.30;;
14704;SDS011;7442;50.840;3.396;2023-12-14T11:44:24;2.90;;;1.50;;
14704;SDS011;7442;50.840;3.396;2023-12-14T11:47:11;11.68;;;1.72;;
14704;SDS011;7442;50.840;3.396;2023-12-14T11:49:57;6.28;;;1.40;;
14704;SDS011;7442;50.840;3.396;2023-12-14T11:52:44;2.52;;;1.45;;
14704;SDS011;7442;50.840;3.396;2023-12-14T11:55:30;3.15;;;1.55;;
14704;SDS011;7442;50.840;3.396;2023-12-14T11:58:16;5.65;;;1.30;;
14704;SDS011;7442;50.840;3.396;2023-12-14T12:01:15;2.58;;;1.40;;
14704;SDS011;7442;50.840;3.396;2023-12-14T12:04:09;2.05;;;1.55;;
14704;SDS011;7442;50.840;3.396;2023-12-14T12:06:49;6.20;;;1.60;;
14704;SDS011;7442;50.840;3.396;2023-12-14T12:12:23;2.55;;;1.50;;
14704;SDS011;7442;50.840;3.396;2023-12-14T12:15:09;3.58;;;1.37;;
14704;SDS011;7442;50.840;3.396;2023-12-14T12:17:57;3.45;;;1.62;;
14704;SDS011;7442;50.840;3.396;2023-12-14T12:20:43;4.03;;;1.57;;
14704;SDS011;7442;50.840;3.396;2023-12-14T12:23:29;2.90;;;1.30;;
14704;SDS011;7442;50.840;3.396;2023-12-14T12:26:15;2.35;;;1.37;;
14704;SDS011;7442;50.840;3.396;2023-12-14T12:29:01;4.87;;;1.50;;
14704;SDS011;7442;50.840;3.396;2023-12-14T12:31:49;2.10;;;1.20;;
14704;SDS011;7442;50.840;3.396;2023-12-14T12:34:36;5.58;;;1.87;;
14704;SDS011;7442;50.840;3.396;2023-12-14T12:37:22;2.83;;;1.50;;
14704;SDS011;7442;50.840;3.396;2023-12-14T12:40:08;3.08;;;1.72;;
14704;SDS011;7442;50.840;3.396;2023-12-14T12:42:55;4.65;;;1.30;;
14704;SDS011;7442;50.840;3.396;2023-12-14T12:45:41;4.53;;;1.52;;
14704;SDS011;7442;50.840;3.396;2023-12-14T12:48:26;9.23;;;1.70;;
14704;SDS011;7442;50.840;3.396;2023-12-14T12:51:13;15.63;;;2.25;;
14704;SDS011;7442;50.840;3.396;2023-12-14T12:53:59;8.08;;;1.75;;
14704;SDS011;7442;50.840;3.396;2023-12-14T12:56:45;11.03;;;1.77;;
14704;SDS011;7442;50.840;3.396;2023-12-14T12:59:31;14.55;;;1.70;;
14704;SDS011;7442;50.840;3.396;2023-12-14T13:02:18;7.92;;;1.55;;
14704;SDS011;7442;50.840;3.396;2023-12-14T13:05:09;15.40;;;2.02;;
14704;SDS011;7442;50.840;3.396;2023-12-14T13:07:55;6.83;;;1.45;;
14704;SDS011;7442;50.840;3.396;2023-12-14T13:10:43;18.67;;;2.47;;
14704;SDS011;7442;50.840;3.396;2023-12-14T13:13:29;8.20;;;1.50;;
14704;SDS011;7442;50.840;3.396;2023-12-14T13:16:16;11.03;;;1.80;;
14704;SDS011;7442;50.840;3.396;2023-12-14T13:19:03;4.67;;;1.65;;
14704;SDS011;7442;50.840;3.396;2023-12-14T13:21:49;8.48;;;1.52;;
14704;SDS011;7442;50.840;3.396;2023-12-14T13:24:35;4.15;;;1.40;;
14704;SDS011;7442;50.840;3.396;2023-12-14T13:27:21;5.97;;;1.40;;
14704;SDS011;7442;50.840;3.396;2023-12-14T13:30:09;4.20;;;1.62;;
14704;SDS011;7442;50.840;3.396;2023-12-14T13:32:56;9.55;;;1.55;;
14704;SDS011;7442;50.840;3.396;2023-12-14T13:35:42;7.40;;;1.50;;
14704;SDS011;7442;50.840;3.396;2023-12-14T13:38:28;5.12;;;1.72;;
14704;SDS011;7442;50.840;3.396;2023-12-14T13:41:14;4.15;;;1.75;;
14704;SDS011;7442;50.840;3.396;2023-12-14T13:44:00;5.67;;;1.70;;
14704;SDS011;7442;50.840;3.396;2023-12-14T13:46:47;5.87;;;1.60;;
14704;SDS011;7442;50.840;3.396;2023-12-14T13:49:33;8.25;;;1.62;;
14704;SDS011;7442;50.840;3.396;2023-12-14T13:52:19;7.85;;;1.80;;
14704;SDS011;7442;50.840;3.396;2023-12-14T13:55:06;6.67;;;1.80;;
14704;SDS011;7442;50.840;3.396;2023-12-14T13:57:52;8.95;;;1.75;;
14704;SDS011;7442;50.840;3.396;2023-12-14T14:00:38;5.85;;;1.82;;
14704;SDS011;7442;50.840;3.396;2023-12-14T14:03:24;6.17;;;1.90;;
14704;SDS011;7442;50.840;3.396;2023-12-14T14:06:12;8.88;;;2.02;;
14704;SDS011;7442;50.840;3.396;2023-12-14T14:09:05;5.47;;;1.90;;
14704;SDS011;7442;50.840;3.396;2023-12-14T14:11:52;5.83;;;1.87;;
14704;SDS011;7442;50.840;3.396;2023-12-14T14:14:38;8.43;;;1.92;;
14704;SDS011;7442;50.840;3.396;2023-12-14T14:17:24;9.70;;;2.30;;
14704;SDS011;7442;50.840;3.396;2023-12-14T14:20:10;6.53;;;2.08;;
14704;SDS011;7442;50.840;3.396;2023-12-14T14:22:56;7.87;;;2.52;;
14704;SDS011;7442;50.840;3.396;2023-12-14T14:25:44;9.80;;;2.95;;
14704;SDS011;7442;50.840;3.396;2023-12-14T14:28:30;9.23;;;2.95;;
14704;SDS011;7442;50.840;3.396;2023-12-14T14:31:16;14.98;;;2.72;;
14704;SDS011;7442;50.840;3.396;2023-12-14T14:34:03;11.55;;;2.30;;
14704;SDS011;7442;50.840;3.396;2023-12-14T14:36:50;10.72;;;2.90;;
14704;SDS011;7442;50.840;3.396;2023-12-14T14:39:36;18.73;;;3.35;;
14704;SDS011;7442;50.840;3.396;2023-12-14T14:42:24;9.25;;;2.80;;
14704;SDS011;7442;50.840;3.396;2023-12-14T14:45:10;11.50;;;2.80;;
14704;SDS011;7442;50.840;3.396;2023-12-14T14:47:57;12.07;;;3.10;;
14704;SDS011;7442;50.840;3.396;2023-12-14T14:50:43;10.23;;;2.72;;
14704;SDS011;7442;50.840;3.396;2023-12-14T14:53:29;14.35;;;3.02;;
14704;SDS011;7442;50.840;3.396;2023-12-14T14:56:15;7.45;;;2.50;;
14704;SDS011;7442;50.840;3.396;2023-12-14T14:59:02;8.48;;;2.70;;
14704;SDS011;7442;50.840;3.396;2023-12-14T15:01:48;11.15;;;3.08;;
14704;SDS011;7442;50.840;3.396;2023-12-14T15:04:36;10.88;;;3.00;;
14704;SDS011;7442;50.840;3.396;2023-12-14T15:07:22;11.33;;;2.92;;
14704;SDS011;7442;50.840;3.396;2023-12-14T15:10:09;7.90;;;2.30;;
14704;SDS011;7442;50.840;3.396;2023-12-14T15:12:56;8.23;;;2.90;;
14704;SDS011;7442;50.840;3.396;2023-12-14T15:15:43;9.80;;;2.77;;
14704;SDS011;7442;50.840;3.396;2023-12-14T15:18:30;9.48;;;2.87;;
14704;SDS011;7442;50.840;3.396;2023-12-14T15:21:16;6.42;;;2.42;;
14704;SDS011;7442;50.840;3.396;2023-12-14T15:24:03;7.83;;;2.87;;
14704;SDS011;7442;50.840;3.396;2023-12-14T15:26:50;8.05;;;2.50;;
14704;SDS011;7442;50.840;3.396;2023-12-14T15:29:36;13.13;;;2.83;;
14704;SDS011;7442;50.840;3.396;2023-12-14T15:32:22;7.90;;;2.80;;
14704;SDS011;7442;50.840;3.396;2023-12-14T15:35:09;9.30;;;2.95;;
14704;SDS011;7442;50.840;3.396;2023-12-14T15:37:55;9.38;;;2.80;;
14704;SDS011;7442;50.840;3.396;2023-12-14T15:40:41;7.40;;;2.85;;
14704;SDS011;7442;50.840;3.396;2023-12-14T15:43:27;8.53;;;2.35;;
14704;SDS011;7442;50.840;3.396;2023-12-14T15:46:13;7.58;;;2.60;;
14704;SDS011;7442;50.840;3.396;2023-12-14T15:48:59;7.03;;;2.72;;
14704;SDS011;7442;50.840;3.396;2023-12-14T15:51:46;9.93;;;2.45;;
14704;SDS011;7442;50.840;3.396;2023-12-14T15:54:33;7.20;;;2.60;;
14704;SDS011;7442;50.840;3.396;2023-12-14T15:57:19;6.85;;;2.52;;
14704;SDS011;7442;50.840;3.396;2023-12-14T16:00:05;8.50;;;2.37;;